createdAt,value
2018-07-20T00:00:29.192Z,0
2018-07-20T00:01:29.912Z,0
2018-07-20T00:02:30.638Z,0
2018-07-20T00:03:31.367Z,0
2018-07-20T00:04:32.082Z,0
2018-07-20T00:05:32.798Z,0
2018-07-20T00:06:33.513Z,0
2018-07-20T00:07:34.241Z,0
2018-07-20T00:08:34.960Z,0
2018-07-20T00:09:35.678Z,0
2018-07-20T00:10:36.393Z,0
2018-07-20T00:11:37.120Z,0
2018-07-20T00:12:37.848Z,0
2018-07-20T00:13:38.578Z,0
2018-07-20T00:14:39.294Z,0
2018-07-20T00:15:40.007Z,0
2018-07-20T00:16:40.759Z,0
2018-07-20T00:18:57.034Z,0
2018-07-20T00:19:57.761Z,0
2018-07-20T00:22:14.701Z,0
2018-07-20T00:23:15.387Z,0
2018-07-20T00:24:16.111Z,0
2018-07-20T00:25:16.826Z,0
2018-07-20T00:26:17.558Z,0
2018-07-20T00:27:18.272Z,0
2018-07-20T00:28:18.986Z,0
2018-07-20T00:29:19.703Z,0
2018-07-20T00:30:20.450Z,0
2018-07-20T00:31:21.160Z,0
2018-07-20T00:32:21.877Z,0
2018-07-20T00:33:22.595Z,0
2018-07-20T00:34:23.310Z,0
2018-07-20T00:35:24.028Z,0
2018-07-20T00:36:24.743Z,0
2018-07-20T00:37:25.459Z,0
2018-07-20T00:38:26.178Z,0
2018-07-20T00:39:26.892Z,0
2018-07-20T00:40:27.622Z,0
2018-07-20T00:41:28.337Z,0
2018-07-20T00:42:29.062Z,0
2018-07-20T00:43:29.777Z,0
2018-07-20T00:44:30.492Z,0
2018-07-20T00:45:31.204Z,0
2018-07-20T00:46:31.920Z,0
2018-07-20T00:47:32.635Z,0
2018-07-20T00:48:33.347Z,0
2018-07-20T00:49:34.074Z,0
2018-07-20T00:50:34.791Z,0
2018-07-20T00:51:35.504Z,0
2018-07-20T00:52:36.220Z,0
2018-07-20T00:53:36.935Z,0
2018-07-20T00:54:37.649Z,0
2018-07-20T00:55:38.365Z,0
2018-07-20T00:56:39.079Z,0
2018-07-20T00:57:39.806Z,0
2018-07-20T00:58:40.523Z,0
2018-07-20T00:59:41.237Z,0
2018-07-20T01:00:41.955Z,0
2018-07-20T01:01:42.671Z,0
2018-07-20T01:02:43.401Z,0
2018-07-20T01:03:44.126Z,0
2018-07-20T01:04:44.857Z,0
2018-07-20T01:05:45.584Z,0
2018-07-20T01:06:46.295Z,0
2018-07-20T01:07:47.009Z,0
2018-07-20T01:08:47.723Z,0
2018-07-20T01:09:48.439Z,0
2018-07-20T01:10:49.156Z,0
2018-07-20T01:11:50.082Z,0
2018-07-20T01:12:50.808Z,0
2018-07-20T01:13:51.526Z,0
2018-07-20T01:14:52.252Z,0
2018-07-20T01:15:52.968Z,0
2018-07-20T01:16:53.694Z,0
2018-07-20T01:17:54.422Z,0
2018-07-20T01:18:55.137Z,0
2018-07-20T01:19:55.853Z,0
2018-07-20T01:20:56.569Z,0
2018-07-20T01:21:57.283Z,0
2018-07-20T01:22:57.998Z,0
2018-07-20T01:23:58.713Z,0
2018-07-20T01:24:59.426Z,0
2018-07-20T01:26:00.140Z,0
2018-07-20T01:27:00.855Z,0
2018-07-20T01:28:01.570Z,0
2018-07-20T01:29:02.284Z,0
2018-07-20T01:30:02.999Z,0
2018-07-20T01:31:03.713Z,0
2018-07-20T01:32:04.429Z,0
2018-07-20T01:33:05.158Z,0
2018-07-20T01:34:05.872Z,0
2018-07-20T01:35:06.586Z,0
2018-07-20T01:36:07.314Z,0
2018-07-20T01:37:08.029Z,0
2018-07-20T01:38:08.744Z,0
2018-07-20T01:39:09.457Z,0
2018-07-20T01:40:10.173Z,0
2018-07-20T01:41:10.888Z,0
2018-07-20T01:42:11.602Z,0
2018-07-20T01:43:12.315Z,0
2018-07-20T01:44:13.030Z,0
2018-07-20T01:45:13.746Z,0
2018-07-20T01:46:14.458Z,0
2018-07-20T01:47:15.172Z,0
2018-07-20T01:49:28.489Z,0
2018-07-20T01:50:29.204Z,0
2018-07-20T01:51:29.930Z,0
2018-07-20T01:52:30.658Z,0
2018-07-20T01:53:31.370Z,0
2018-07-20T01:54:32.085Z,0
2018-07-20T01:55:32.813Z,0
2018-07-20T01:56:33.524Z,0
2018-07-20T01:57:34.241Z,0
2018-07-20T01:58:34.956Z,0
2018-07-20T01:59:35.668Z,0
2018-07-20T02:00:36.383Z,0
2018-07-20T02:01:37.095Z,0
2018-07-20T02:02:37.811Z,0
2018-07-20T02:03:38.525Z,0
2018-07-20T02:04:39.253Z,0
2018-07-20T02:05:39.968Z,0
2018-07-20T02:06:40.682Z,0
2018-07-20T02:07:41.408Z,0
2018-07-20T02:08:42.137Z,0
2018-07-20T02:09:42.854Z,0
2018-07-20T02:10:43.571Z,0
2018-07-20T02:11:44.297Z,0
2018-07-20T02:12:45.026Z,0
2018-07-20T02:13:45.738Z,0
2018-07-20T02:14:46.454Z,0
2018-07-20T02:15:47.171Z,0
2018-07-20T02:16:47.884Z,0
2018-07-20T02:17:48.611Z,0
2018-07-20T02:18:49.326Z,0
2018-07-20T02:19:50.038Z,0
2018-07-20T02:20:50.766Z,0
2018-07-20T02:21:51.481Z,0
2018-07-20T02:22:52.198Z,0
2018-07-20T02:23:52.912Z,0
2018-07-20T02:24:53.628Z,0
2018-07-20T02:25:54.346Z,0
2018-07-20T02:26:55.066Z,0
2018-07-20T02:27:55.814Z,0
2018-07-20T02:28:56.495Z,0
2018-07-20T02:29:57.209Z,0
2018-07-20T02:30:57.938Z,0
2018-07-20T02:31:58.653Z,0
2018-07-20T02:32:59.366Z,0
2018-07-20T02:34:00.079Z,0
2018-07-20T02:35:00.809Z,0
2018-07-20T02:36:01.522Z,0
2018-07-20T02:37:02.238Z,0
2018-07-20T02:38:02.953Z,0
2018-07-20T02:39:03.667Z,0
2018-07-20T02:40:04.395Z,0
2018-07-20T02:41:05.109Z,0
2018-07-20T02:42:05.825Z,0
2018-07-20T02:43:06.542Z,0
2018-07-20T02:44:07.257Z,0
2018-07-20T02:45:07.977Z,0
2018-07-20T02:46:08.701Z,0
2018-07-20T02:47:09.416Z,0
2018-07-20T02:48:10.134Z,0
2018-07-20T02:49:10.864Z,0
2018-07-20T02:50:11.579Z,0
2018-07-20T02:51:12.294Z,0
2018-07-20T02:52:13.009Z,0
2018-07-20T02:53:13.735Z,0
2018-07-20T02:54:14.464Z,0
2018-07-20T02:55:15.181Z,0
2018-07-20T02:56:15.904Z,0
2018-07-20T02:57:16.619Z,0
2018-07-20T02:58:17.334Z,0
2018-07-20T02:59:18.066Z,0
2018-07-20T03:00:18.790Z,0
2018-07-20T03:01:19.503Z,0
2018-07-20T03:02:20.219Z,0
2018-07-20T03:03:20.935Z,0
2018-07-20T03:04:21.654Z,0
2018-07-20T03:05:22.362Z,0
2018-07-20T03:06:23.077Z,0
2018-07-20T03:07:23.790Z,0
2018-07-20T03:08:24.517Z,0
2018-07-20T03:09:25.250Z,0
2018-07-20T03:10:25.959Z,0
2018-07-20T03:11:26.673Z,0
2018-07-20T03:12:27.403Z,0
2018-07-20T03:13:28.118Z,0
2018-07-20T03:14:28.835Z,0
2018-07-20T03:15:29.560Z,0
2018-07-20T03:16:30.285Z,0
2018-07-20T03:17:31.016Z,0
2018-07-20T03:18:31.745Z,0
2018-07-20T03:19:32.462Z,0
2018-07-20T03:20:33.177Z,0
2018-07-20T03:21:33.893Z,0
2018-07-20T03:22:34.604Z,0
2018-07-20T03:23:35.320Z,0
2018-07-20T03:24:36.049Z,0
2018-07-20T03:25:36.766Z,0
2018-07-20T03:26:37.481Z,0
2018-07-20T03:27:38.199Z,0
2018-07-20T03:28:38.913Z,0
2018-07-20T03:29:39.627Z,0
2018-07-20T03:30:40.345Z,0
2018-07-20T03:31:41.071Z,0
2018-07-20T03:32:41.877Z,0
2018-07-20T03:33:42.522Z,0
2018-07-20T03:34:43.237Z,5
2018-07-20T03:35:43.953Z,5
2018-07-20T03:36:44.667Z,5
2018-07-20T03:37:45.382Z,5
2018-07-20T03:38:46.110Z,5
2018-07-20T03:39:46.826Z,5
2018-07-20T03:40:47.544Z,5
2018-07-20T03:41:48.276Z,5
2018-07-20T03:42:48.992Z,5
2018-07-20T03:43:49.708Z,5
2018-07-20T03:44:50.425Z,5
2018-07-20T03:45:51.142Z,5
2018-07-20T03:46:51.859Z,5
2018-07-20T03:47:52.575Z,10
2018-07-20T03:48:53.333Z,10
2018-07-20T03:49:54.012Z,10
2018-07-20T03:50:54.729Z,10
2018-07-20T03:51:55.447Z,10
2018-07-20T03:52:56.177Z,10
2018-07-20T03:53:56.892Z,10
2018-07-20T03:54:57.609Z,15
2018-07-20T03:55:58.325Z,15
2018-07-20T03:56:59.055Z,15
2018-07-20T03:57:59.770Z,15
2018-07-20T03:59:00.484Z,15
2018-07-20T04:00:01.218Z,15
2018-07-20T04:01:01.944Z,15
2018-07-20T04:02:02.660Z,15
2018-07-20T04:03:03.377Z,20
2018-07-20T04:04:04.093Z,20
2018-07-20T04:05:04.823Z,20
2018-07-20T04:06:05.540Z,20
2018-07-20T04:07:06.269Z,20
2018-07-20T04:08:06.986Z,20
2018-07-20T04:09:07.703Z,20
2018-07-20T04:10:08.465Z,20
2018-07-20T04:11:09.139Z,20
2018-07-20T04:12:09.868Z,25
2018-07-20T04:13:10.584Z,25
2018-07-20T04:14:11.302Z,25
2018-07-20T04:15:12.018Z,25
2018-07-20T04:16:12.736Z,25
2018-07-20T04:17:13.454Z,25
2018-07-20T04:18:14.183Z,25
2018-07-20T04:19:14.901Z,30
2018-07-20T04:20:15.620Z,30
2018-07-20T04:21:16.347Z,30
2018-07-20T04:22:17.065Z,30
2018-07-20T04:23:17.781Z,30
2018-07-20T04:24:18.497Z,30
2018-07-20T04:25:19.228Z,30
2018-07-20T04:26:19.948Z,35
2018-07-20T04:27:20.664Z,35
2018-07-20T04:28:21.382Z,35
2018-07-20T04:29:22.100Z,35
2018-07-20T04:30:22.819Z,35
2018-07-20T04:31:23.551Z,35
2018-07-20T04:32:24.269Z,40
2018-07-20T04:33:24.989Z,40
2018-07-20T04:34:25.707Z,40
2018-07-20T04:35:26.424Z,40
2018-07-20T04:36:27.219Z,40
2018-07-20T04:37:27.867Z,40
2018-07-20T04:38:28.584Z,45
2018-07-20T04:39:29.302Z,45
2018-07-20T04:40:30.018Z,45
2018-07-20T04:41:30.741Z,45
2018-07-20T04:42:31.458Z,50
2018-07-20T04:43:32.176Z,50
2018-07-20T04:44:32.896Z,50
2018-07-20T04:45:33.612Z,50
2018-07-20T04:46:34.331Z,55
2018-07-20T04:47:35.048Z,55
2018-07-20T04:48:35.765Z,55
2018-07-20T04:49:36.496Z,55
2018-07-20T04:50:37.215Z,55
2018-07-20T04:51:37.932Z,60
2018-07-20T04:52:38.649Z,60
2018-07-20T04:53:39.366Z,60
2018-07-20T04:54:40.084Z,60
2018-07-20T04:55:40.801Z,65
2018-07-20T04:56:41.520Z,65
2018-07-20T04:57:42.253Z,60
2018-07-20T04:58:43.010Z,65
2018-07-20T04:59:43.703Z,65
2018-07-20T05:00:44.421Z,70
2018-07-20T05:01:45.194Z,70
2018-07-20T05:02:45.912Z,70
2018-07-20T05:03:46.712Z,65
2018-07-20T05:04:47.353Z,70
2018-07-20T05:05:48.093Z,70
2018-07-20T05:06:48.793Z,75
2018-07-20T05:07:49.526Z,75
2018-07-20T05:08:50.250Z,80
2018-07-20T05:09:50.964Z,80
2018-07-20T05:10:51.683Z,80
2018-07-20T05:11:52.412Z,80
2018-07-20T05:12:53.129Z,80
2018-07-20T05:13:53.860Z,85
2018-07-20T05:14:54.590Z,80
2018-07-20T05:15:55.310Z,80
2018-07-20T05:16:56.029Z,80
2018-07-20T05:17:56.746Z,80
2018-07-20T05:18:57.466Z,80
2018-07-20T05:19:58.186Z,80
2018-07-20T05:20:58.917Z,80
2018-07-20T05:21:59.638Z,80
2018-07-20T05:23:00.406Z,80
2018-07-20T05:24:01.129Z,80
2018-07-20T05:25:01.847Z,80
2018-07-20T05:26:02.565Z,85
2018-07-20T05:27:03.319Z,85
2018-07-20T05:28:04.036Z,90
2018-07-20T05:29:04.753Z,95
2018-07-20T05:30:05.475Z,95
2018-07-20T05:31:06.196Z,95
2018-07-20T05:32:06.913Z,95
2018-07-20T05:33:07.632Z,95
2018-07-20T05:34:08.352Z,105
2018-07-20T05:35:09.072Z,100
2018-07-20T05:36:09.804Z,105
2018-07-20T05:37:10.528Z,105
2018-07-20T05:38:11.314Z,105
2018-07-20T05:39:11.984Z,105
2018-07-20T05:40:12.729Z,110
2018-07-20T05:41:13.449Z,110
2018-07-20T05:42:14.170Z,115
2018-07-20T05:43:14.902Z,115
2018-07-20T05:44:15.636Z,120
2018-07-20T05:45:16.356Z,120
2018-07-20T05:46:17.088Z,120
2018-07-20T05:47:17.808Z,125
2018-07-20T05:48:18.528Z,130
2018-07-20T05:49:19.247Z,125
2018-07-20T05:50:19.969Z,125
2018-07-20T05:51:20.691Z,125
2018-07-20T05:52:21.446Z,130
2018-07-20T05:53:22.220Z,130
2018-07-20T05:54:22.890Z,130
2018-07-20T05:55:23.620Z,130
2018-07-20T05:56:24.341Z,135
2018-07-20T05:57:25.064Z,140
2018-07-20T05:58:25.784Z,140
2018-07-20T05:59:26.503Z,140
2018-07-20T06:00:27.224Z,140
2018-07-20T06:01:27.943Z,145
2018-07-20T06:02:28.665Z,145
2018-07-20T06:03:29.388Z,150
2018-07-20T06:04:30.122Z,150
2018-07-20T06:05:30.856Z,150
2018-07-20T06:06:31.577Z,155
2018-07-20T06:07:32.307Z,155
2018-07-20T06:08:33.033Z,155
2018-07-20T06:09:33.756Z,155
2018-07-20T06:10:34.480Z,155
2018-07-20T06:11:35.203Z,155
2018-07-20T06:12:35.926Z,160
2018-07-20T06:13:36.647Z,160
2018-07-20T06:14:37.384Z,165
2018-07-20T06:15:38.108Z,160
2018-07-20T06:16:38.834Z,165
2018-07-20T06:17:39.563Z,165
2018-07-20T06:18:40.285Z,170
2018-07-20T06:19:41.015Z,170
2018-07-20T06:20:41.739Z,175
2018-07-20T06:21:42.474Z,175
2018-07-20T06:22:43.210Z,175
2018-07-20T06:23:43.971Z,175
2018-07-20T06:24:44.656Z,180
2018-07-20T06:25:45.380Z,180
2018-07-20T06:26:46.107Z,185
2018-07-20T06:27:46.833Z,195
2018-07-20T06:28:47.553Z,205
2018-07-20T06:29:48.276Z,215
2018-07-20T06:30:49.004Z,230
2018-07-20T06:31:49.736Z,240
2018-07-20T06:32:50.453Z,240
2018-07-20T06:33:51.181Z,230
2018-07-20T06:34:51.919Z,225
2018-07-20T06:35:52.646Z,210
2018-07-20T06:36:53.389Z,205
2018-07-20T06:37:54.111Z,200
2018-07-20T06:38:54.848Z,200
2018-07-20T06:39:55.568Z,200
2018-07-20T06:40:56.291Z,200
2018-07-20T06:41:57.019Z,200
2018-07-20T06:42:57.748Z,205
2018-07-20T06:43:58.485Z,200
2018-07-20T06:44:59.215Z,210
2018-07-20T06:45:59.938Z,210
2018-07-20T06:47:00.665Z,220
2018-07-20T06:48:01.392Z,215
2018-07-20T06:49:02.117Z,205
2018-07-20T06:50:02.844Z,200
2018-07-20T06:51:03.571Z,200
2018-07-20T06:52:04.299Z,200
2018-07-20T06:53:05.029Z,200
2018-07-20T06:54:05.754Z,210
2018-07-20T06:55:06.479Z,215
2018-07-20T06:56:07.207Z,215
2018-07-20T06:57:07.932Z,220
2018-07-20T06:58:08.670Z,225
2018-07-20T06:59:09.401Z,225
2018-07-20T07:00:10.127Z,225
2018-07-20T07:01:10.868Z,230
2018-07-20T07:02:11.594Z,230
2018-07-20T07:03:12.332Z,230
2018-07-20T07:04:13.072Z,225
2018-07-20T07:05:13.800Z,225
2018-07-20T07:06:14.539Z,225
2018-07-20T07:07:15.270Z,225
2018-07-20T07:08:15.997Z,230
2018-07-20T07:09:16.744Z,235
2018-07-20T07:10:17.451Z,235
2018-07-20T07:11:18.191Z,240
2018-07-20T07:12:18.918Z,240
2018-07-20T07:13:19.645Z,240
2018-07-20T07:14:20.372Z,245
2018-07-20T07:15:21.103Z,250
2018-07-20T07:16:21.844Z,250
2018-07-20T07:17:22.567Z,255
2018-07-20T07:18:23.310Z,255
2018-07-20T07:19:24.033Z,260
2018-07-20T07:20:24.764Z,260
2018-07-20T07:21:25.499Z,265
2018-07-20T07:22:26.226Z,265
2018-07-20T07:23:26.952Z,270
2018-07-20T07:24:27.682Z,270
2018-07-20T07:25:28.419Z,275
2018-07-20T07:26:29.146Z,280
2018-07-20T07:27:29.873Z,280
2018-07-20T07:29:32.341Z,275
2018-07-20T07:30:33.064Z,280
2018-07-20T07:31:33.802Z,280
2018-07-20T07:32:34.527Z,285
2018-07-20T07:33:35.252Z,290
2018-07-20T07:34:35.989Z,295
2018-07-20T07:35:36.719Z,300
2018-07-20T07:36:37.445Z,300
2018-07-20T07:37:38.184Z,305
2018-07-20T07:38:38.911Z,310
2018-07-20T07:39:39.641Z,315
2018-07-20T07:40:40.370Z,325
2018-07-20T07:41:41.146Z,320
2018-07-20T07:42:41.824Z,330
2018-07-20T07:43:42.551Z,335
2018-07-20T07:44:43.294Z,345
2018-07-20T07:45:44.022Z,355
2018-07-20T07:46:44.751Z,365
2018-07-20T07:47:45.495Z,385
2018-07-20T07:48:46.224Z,405
2018-07-20T07:49:46.953Z,475
2018-07-20T07:50:47.689Z,650
2018-07-20T07:51:48.427Z,765
2018-07-20T07:52:49.162Z,815
2018-07-20T07:53:49.888Z,845
2018-07-20T07:54:50.653Z,850
2018-07-20T07:55:51.348Z,870
2018-07-20T07:56:52.082Z,890
2018-07-20T07:57:52.823Z,890
2018-07-20T07:58:53.551Z,910
2018-07-20T07:59:54.306Z,950
2018-07-20T08:00:55.038Z,970
2018-07-20T08:01:55.770Z,1000
2018-07-20T08:02:56.501Z,975
2018-07-20T08:03:57.245Z,975
2018-07-20T08:04:57.977Z,960
2018-07-20T08:05:58.709Z,940
2018-07-20T08:06:59.454Z,960
2018-07-20T08:08:00.186Z,995
2018-07-20T08:09:00.919Z,995
2018-07-20T08:10:01.790Z,985
2018-07-20T08:11:02.405Z,1030
2018-07-20T08:12:03.154Z,1075
2018-07-20T08:13:03.889Z,1055
2018-07-20T08:14:04.634Z,1040
2018-07-20T08:15:05.368Z,1035
2018-07-20T08:16:06.104Z,1070
2018-07-20T08:17:06.839Z,1045
2018-07-20T08:18:07.572Z,1070
2018-07-20T08:19:08.304Z,1085
2018-07-20T08:20:09.050Z,1060
2018-07-20T08:21:09.797Z,1105
2018-07-20T08:22:10.533Z,1065
2018-07-20T08:23:11.282Z,1085
2018-07-20T08:24:12.027Z,1140
2018-07-20T08:25:12.777Z,1130
2018-07-20T08:26:13.510Z,1165
2018-07-20T08:27:14.460Z,1105
2018-07-20T08:28:15.200Z,1070
2018-07-20T08:29:15.947Z,1110
2018-07-20T08:30:16.686Z,1150
2018-07-20T08:31:17.421Z,1125
2018-07-20T08:32:18.160Z,1155
2018-07-20T08:33:18.903Z,1170
2018-07-20T08:34:19.640Z,1105
2018-07-20T08:35:20.391Z,1080
2018-07-20T08:36:21.132Z,1130
2018-07-20T08:37:21.874Z,1230
2018-07-20T08:38:22.614Z,1250
2018-07-20T08:39:23.354Z,1100
2018-07-20T08:40:24.093Z,1110
2018-07-20T08:41:24.838Z,1195
2018-07-20T08:42:25.582Z,1195
2018-07-20T08:43:26.337Z,1150
2018-07-20T08:44:27.083Z,1215
2018-07-20T08:45:27.826Z,1310
2018-07-20T08:46:28.622Z,1300
2018-07-20T08:47:29.313Z,1215
2018-07-20T08:48:30.060Z,1230
2018-07-20T08:49:30.805Z,1320
2018-07-20T08:50:31.548Z,1340
2018-07-20T08:51:32.287Z,1350
2018-07-20T08:52:33.030Z,1315
2018-07-20T08:53:33.775Z,1255
2018-07-20T08:54:34.515Z,1270
2018-07-20T08:55:35.254Z,1305
2018-07-20T08:56:35.997Z,1305
2018-07-20T08:57:36.733Z,1265
2018-07-20T08:58:37.488Z,1290
2018-07-20T08:59:38.244Z,1345
2018-07-20T09:00:38.983Z,1325
2018-07-20T09:01:39.726Z,1315
2018-07-20T09:02:40.468Z,1355
2018-07-20T09:03:41.264Z,1340
2018-07-20T09:04:41.949Z,1330
2018-07-20T09:05:42.704Z,1350
2018-07-20T09:06:43.447Z,1325
2018-07-20T09:07:44.188Z,1290
2018-07-20T09:08:44.929Z,1225
2018-07-20T09:09:45.675Z,1460
2018-07-20T09:10:46.429Z,1460
2018-07-20T09:11:47.180Z,1470
2018-07-20T09:12:47.921Z,1485
2018-07-20T09:13:48.836Z,1465
2018-07-20T09:14:49.414Z,1460
2018-07-20T09:15:50.169Z,1475
2018-07-20T09:16:50.913Z,1465
2018-07-20T09:17:51.649Z,1505
2018-07-20T09:18:52.400Z,1485
2018-07-20T09:19:53.143Z,1450
2018-07-20T09:20:53.902Z,1440
2018-07-20T09:21:54.631Z,1530
2018-07-20T09:22:55.380Z,1605
2018-07-20T09:23:56.117Z,1555
2018-07-20T09:24:56.854Z,1485
2018-07-20T09:25:57.608Z,1480
2018-07-20T09:26:58.345Z,1470
2018-07-20T09:27:59.087Z,1455
2018-07-20T09:28:59.826Z,1485
2018-07-20T09:30:00.569Z,1520
2018-07-20T09:31:01.304Z,1430
2018-07-20T09:32:02.055Z,1505
2018-07-20T09:33:02.794Z,1515
2018-07-20T09:34:03.552Z,1535
2018-07-20T09:35:04.288Z,1550
2018-07-20T09:36:05.037Z,1540
2018-07-20T09:37:05.776Z,1560
2018-07-20T09:38:06.515Z,1525
2018-07-20T09:39:07.253Z,1475
2018-07-20T09:40:07.999Z,1480
2018-07-20T09:41:08.749Z,1475
2018-07-20T09:42:09.485Z,1515
2018-07-20T09:43:10.241Z,1600
2018-07-20T09:44:10.978Z,1630
2018-07-20T09:45:12.028Z,1570
2018-07-20T09:46:12.677Z,1455
2018-07-20T09:47:13.421Z,1500
2018-07-20T09:48:14.180Z,1535
2018-07-20T09:49:14.922Z,1545
2018-07-20T09:50:15.658Z,1560
2018-07-20T09:51:16.395Z,1580
2018-07-20T09:52:17.146Z,1630
2018-07-20T09:53:17.886Z,1640
2018-07-20T09:54:19.338Z,1595
2018-07-20T09:55:19.982Z,1475
2018-07-20T09:56:20.719Z,1640
2018-07-20T09:57:21.469Z,1705
2018-07-20T09:58:22.266Z,1660
2018-07-20T09:59:22.959Z,1590
2018-07-20T10:00:23.694Z,1555
2018-07-20T10:01:24.447Z,1565
2018-07-20T10:02:25.183Z,1455
2018-07-20T10:03:25.919Z,1230
2018-07-20T10:04:26.667Z,1285
2018-07-20T10:05:27.413Z,960
2018-07-20T10:06:28.162Z,855
2018-07-20T10:07:28.897Z,810
2018-07-20T10:08:29.634Z,1155
2018-07-20T10:09:30.383Z,1565
2018-07-20T10:10:31.131Z,1585
2018-07-20T10:11:31.924Z,1520
2018-07-20T10:12:32.641Z,1660
2018-07-20T10:14:23.217Z,1640
2018-07-20T10:15:23.958Z,1600
2018-07-20T10:16:24.691Z,1630
2018-07-20T10:17:25.428Z,1710
2018-07-20T10:18:26.166Z,1785
2018-07-20T10:19:26.914Z,1810
2018-07-20T10:20:27.668Z,1800
2018-07-20T10:21:28.403Z,1700
2018-07-20T10:22:29.141Z,1665
2018-07-20T10:23:29.881Z,1705
2018-07-20T10:24:30.617Z,1715
2018-07-20T10:25:31.368Z,1740
2018-07-20T10:26:32.101Z,1700
2018-07-20T10:27:32.852Z,1785
2018-07-20T10:28:33.589Z,1550
2018-07-20T10:29:34.328Z,1315
2018-07-20T10:30:35.075Z,1510
2018-07-20T10:31:35.818Z,1715
2018-07-20T10:33:20.509Z,1645
2018-07-20T10:34:21.245Z,1480
2018-07-20T10:35:21.997Z,1645
2018-07-20T10:36:22.736Z,1725
2018-07-20T10:38:13.088Z,1745
2018-07-20T10:39:13.822Z,1730
2018-07-20T10:40:14.560Z,1745
2018-07-20T10:41:59.702Z,1760
2018-07-20T10:43:00.467Z,1910
2018-07-20T10:44:01.190Z,1900
2018-07-20T10:45:01.928Z,1825
2018-07-20T10:46:02.662Z,1775
2018-07-20T10:47:03.450Z,1925
2018-07-20T10:48:04.137Z,1970
2018-07-20T10:49:04.920Z,1945
2018-07-20T10:50:05.677Z,1815
2018-07-20T10:51:06.408Z,1800
2018-07-20T10:52:07.177Z,1745
2018-07-20T10:53:07.884Z,1575
2018-07-20T10:54:08.620Z,1350
2018-07-20T10:55:09.359Z,1490
2018-07-20T10:56:10.097Z,1440
2018-07-20T10:57:10.834Z,1320
2018-07-20T10:58:11.571Z,1345
2018-07-20T10:59:12.310Z,805
2018-07-20T11:00:13.059Z,955
2018-07-20T11:01:13.806Z,1020
2018-07-20T11:02:15.149Z,1365
2018-07-20T11:04:25.998Z,1460
2018-07-20T11:06:28.867Z,1770
2018-07-20T11:07:30.611Z,1800
2018-07-20T11:08:31.349Z,1755
2018-07-20T11:11:23.837Z,1760
2018-07-20T11:12:24.583Z,1845
2018-07-20T11:13:25.318Z,1920
2018-07-20T11:14:26.055Z,1695
2018-07-20T11:15:26.791Z,1860
2018-07-20T11:16:27.543Z,1805
2018-07-20T11:17:28.291Z,1825
2018-07-20T11:18:29.030Z,1960
2018-07-20T11:20:46.281Z,2020
2018-07-20T11:21:48.232Z,2000
2018-07-20T11:22:48.980Z,1925
2018-07-20T11:23:49.717Z,1990
2018-07-20T11:24:50.466Z,2000
2018-07-20T11:25:51.203Z,2035
2018-07-20T11:26:51.941Z,1990
2018-07-20T11:27:52.678Z,1980
2018-07-20T11:28:53.431Z,1985
2018-07-20T11:29:54.166Z,2035
2018-07-20T11:30:54.915Z,2135
2018-07-20T11:31:55.651Z,2075
2018-07-20T11:32:56.388Z,2040
2018-07-20T11:33:57.128Z,1925
2018-07-20T11:34:57.877Z,1655
2018-07-20T11:35:58.613Z,1700
2018-07-20T11:36:59.349Z,1595
2018-07-20T11:38:00.089Z,1580
2018-07-20T11:39:00.827Z,1495
2018-07-20T11:40:01.562Z,1725
2018-07-20T11:41:02.299Z,1760
2018-07-20T11:42:03.037Z,1605
2018-07-20T11:43:03.773Z,1560
2018-07-20T11:44:04.525Z,1460
2018-07-20T11:45:05.271Z,1530
2018-07-20T11:46:06.011Z,1600
2018-07-20T11:47:06.748Z,1720
2018-07-20T11:48:07.486Z,1670
2018-07-20T11:49:08.221Z,1690
2018-07-20T11:50:08.959Z,1720
2018-07-20T11:51:09.694Z,1750
2018-07-20T11:52:10.431Z,1715
2018-07-20T11:53:11.168Z,1720
2018-07-20T11:54:11.916Z,1750
2018-07-20T11:55:12.652Z,1715
2018-07-20T11:56:13.388Z,1715
2018-07-20T11:57:14.125Z,1755
2018-07-20T11:58:14.875Z,1705
2018-07-20T11:59:15.614Z,1820
2018-07-20T12:00:16.363Z,1805
2018-07-20T12:01:17.123Z,1695
2018-07-20T12:02:17.853Z,1645
2018-07-20T12:03:18.588Z,1490
2018-07-20T12:04:19.323Z,1630
2018-07-20T12:05:20.059Z,1665
2018-07-20T12:06:20.799Z,1620
2018-07-20T12:07:21.537Z,1520
2018-07-20T12:08:22.275Z,1550
2018-07-20T12:09:23.011Z,1595
2018-07-20T12:10:23.750Z,1610
2018-07-20T12:11:24.500Z,1660
2018-07-20T12:12:25.238Z,1610
2018-07-20T12:13:25.976Z,1505
2018-07-20T12:14:26.712Z,1600
2018-07-20T12:15:27.462Z,1445
2018-07-20T12:16:28.200Z,520
2018-07-20T12:17:28.935Z,490
2018-07-20T12:18:29.667Z,455
2018-07-20T12:19:30.414Z,445
2018-07-20T12:20:31.149Z,445
2018-07-20T12:21:31.885Z,415
2018-07-20T12:22:32.622Z,415
2018-07-20T12:23:33.356Z,430
2018-07-20T12:24:34.091Z,450
2018-07-20T12:25:34.838Z,500
2018-07-20T12:26:35.589Z,610
2018-07-20T12:27:36.330Z,630
2018-07-20T12:28:37.077Z,1285
2018-07-20T12:29:37.814Z,1325
2018-07-20T12:30:38.555Z,545
2018-07-20T12:31:39.292Z,480
2018-07-20T12:32:40.032Z,475
2018-07-20T12:33:40.769Z,520
2018-07-20T12:34:41.522Z,1330
2018-07-20T12:35:42.265Z,1460
2018-07-20T12:36:43.020Z,1475
2018-07-20T12:37:43.760Z,1465
2018-07-20T12:38:44.497Z,765
2018-07-20T12:39:45.235Z,930
2018-07-20T12:40:45.974Z,510
2018-07-20T12:41:46.713Z,520
2018-07-20T12:42:47.447Z,515
2018-07-20T12:43:48.184Z,550
2018-07-20T12:44:48.933Z,1025
2018-07-20T12:45:49.659Z,605
2018-07-20T12:46:50.396Z,1380
2018-07-20T12:47:51.138Z,1315
2018-07-20T12:48:51.877Z,1400
2018-07-20T12:49:52.617Z,1100
2018-07-20T12:50:53.367Z,830
2018-07-20T12:51:54.119Z,1260
2018-07-20T12:52:54.857Z,955
2018-07-20T12:53:55.605Z,720
2018-07-20T12:54:56.345Z,1430
2018-07-20T12:55:57.089Z,1525
2018-07-20T12:56:57.823Z,1545
2018-07-20T12:57:58.573Z,1695
2018-07-20T12:58:59.358Z,715
2018-07-20T13:00:00.085Z,675
2018-07-20T13:01:00.814Z,1785
2018-07-20T13:02:01.553Z,1830
2018-07-20T13:03:02.290Z,1790
2018-07-20T13:04:03.034Z,1855
2018-07-20T13:05:03.785Z,1805
2018-07-20T13:06:04.535Z,1885
2018-07-20T13:07:05.273Z,1810
2018-07-20T13:08:06.012Z,1770
2018-07-20T13:09:06.750Z,1775
2018-07-20T13:10:07.490Z,1700
2018-07-20T13:11:08.253Z,1785
2018-07-20T13:12:09.045Z,1785
2018-07-20T13:13:09.721Z,1780
2018-07-20T13:14:10.465Z,1795
2018-07-20T13:15:11.206Z,1780
2018-07-20T13:16:11.944Z,1505
2018-07-20T13:17:12.679Z,1795
2018-07-20T13:18:13.492Z,1745
2018-07-20T13:19:14.152Z,1750
2018-07-20T13:20:14.887Z,1770
2018-07-20T13:21:15.625Z,1685
2018-07-20T13:22:16.361Z,1230
2018-07-20T13:23:17.095Z,990
2018-07-20T13:24:17.832Z,810
2018-07-20T13:25:18.568Z,965
2018-07-20T13:26:19.302Z,505
2018-07-20T13:27:20.036Z,735
2018-07-20T13:28:20.773Z,400
2018-07-20T13:29:21.506Z,500
2018-07-20T13:30:22.259Z,1255
2018-07-20T13:31:23.009Z,540
2018-07-20T13:32:23.747Z,375
2018-07-20T13:33:24.491Z,355
2018-07-20T13:34:25.231Z,320
2018-07-20T13:35:25.966Z,300
2018-07-20T13:36:26.706Z,290
2018-07-20T13:37:27.447Z,290
2018-07-20T13:38:28.195Z,305
2018-07-20T13:39:28.934Z,335
2018-07-20T13:40:30.886Z,370
2018-07-20T13:41:31.622Z,410
2018-07-20T13:42:32.418Z,455
2018-07-20T13:43:33.125Z,1285
2018-07-20T13:44:33.861Z,1390
2018-07-20T13:45:34.614Z,1390
2018-07-20T13:46:35.368Z,1470
2018-07-20T13:47:36.103Z,1490
2018-07-20T13:48:36.851Z,1465
2018-07-20T13:49:37.591Z,1485
2018-07-20T13:50:38.331Z,1545
2018-07-20T13:51:39.069Z,440
2018-07-20T13:52:39.882Z,460
2018-07-20T13:53:40.552Z,440
2018-07-20T13:54:41.288Z,425
2018-07-20T13:55:42.023Z,440
2018-07-20T13:56:42.773Z,1255
2018-07-20T13:57:43.512Z,1120
2018-07-20T13:58:44.250Z,465
2018-07-20T13:59:44.987Z,455
2018-07-20T14:00:45.728Z,415
2018-07-20T14:01:46.463Z,380
2018-07-20T14:02:47.201Z,360
2018-07-20T14:03:47.943Z,395
2018-07-20T14:04:48.691Z,430
2018-07-20T14:05:49.438Z,1290
2018-07-20T14:06:50.176Z,825
2018-07-20T14:07:50.914Z,450
2018-07-20T14:08:51.650Z,490
2018-07-20T14:09:52.388Z,960
2018-07-20T14:10:53.126Z,1300
2018-07-20T14:11:53.862Z,375
2018-07-20T14:12:54.610Z,350
2018-07-20T14:13:55.357Z,350
2018-07-20T14:14:56.097Z,370
2018-07-20T14:15:56.833Z,445
2018-07-20T14:16:57.572Z,430
2018-07-20T14:17:58.310Z,425
2018-07-20T14:18:59.048Z,1010